This is the latest recevied weather packets stored in our database for station/object VU3YEJ-WX. If no packets are shown the sender has not sent any weather packets the latest 10 day(s).
| Time | Temp. | Humidity | Pressure | Rain* | Wind** | Luminosity | Snow |
|---|---|---|---|---|---|---|---|
| 1787620845 | 22.78° C | 100% | 1011 hPa | - | - | - | - |
| 1787617245 | 22.78° C | 100% | 1010 hPa | - | - | - | - |
| 1787615445 | 22.78° C | 100% | 1010 hPa | - | - | - | - |
| 1787611848 | 22.22° C | 100% | 1010 hPa | - | - | - | - |
| 1787608243 | 22.22° C | 100% | 1010 hPa | - | - | - | - |
| 1787606443 | 22.22° C | 100% | 1010 hPa | - | - | - | - |
| 1787604644 | 22.22° C | 100% | 1011 hPa | - | - | - | - |
| 1787601044 | 22.22° C | 100% | 1012 hPa | - | - | - | - |
| 1787595644 | 22.78° C | 100% | 1013 hPa | - | - | - | - |
| 1787593848 | 22.78° C | 100% | 1013 hPa | - | - | - | - |
| 1787590248 | 22.78° C | 100% | 1013 hPa | - | - | - | - |
| 1787588455 | 23.89° C | 100% | 1013 hPa | - | - | - | - |
| 1787586647 | 23.89° C | 94% | 1012 hPa | - | - | - | - |
| 1787584853 | 23.89° C | 94% | 1012 hPa | - | - | - | - |
| 1787583049 | 23.89° C | 100% | 1011 hPa | - | - | - | - |
| 1787581246 | 23.89° C | 100% | 1011 hPa | - | - | - | - |
| 1787579447 | 22.78° C | 100% | 1010 hPa | - | - | - | - |
| 1787577647 | 23.89° C | 100% | 1010 hPa | - | - | - | - |
| 1787575853 | 25° C | 89% | 1010 hPa | - | - | - | - |
| 1787574050 | 26.11° C | 89% | 1010 hPa | - | - | - | - |
| 1787572249 | 25° C | 94% | 1010 hPa | - | - | - | - |
| 1787570447 | 26.11° C | 84% | 1010 hPa | - | - | - | - |
| 1787568663 | 27.22° C | 84% | 1010 hPa | - | - | - | - |
| 1787566846 | 27.22° C | 84% | 1010 hPa | - | - | - | - |
| 1787565048 | 25° C | 100% | 1011 hPa | - | - | - | - |
* Rain since midnight (hover to see other rain measurements)
** Current wind speed in m/s (hover to see current wind gust speed)